EBBR/BRU METAR and TAF weather

Enter ICAO airport designator
Station Type Date Time Source
EBBR METAR 2019/11/15 05:20 UTC NOAA

EBBR 150520Z 03008KT 9999 SCT006 BKN007 03/02 Q0998 TEMPO BKN004


Station Type Date Time Source
EBBR Decoded METAR 2019/11/15 05:20 UTC NOAA

Bruxelles National, Belgium (EBBR) 50-54N 004-32E 58M
Nov 15, 2019 - 12:20 AM EST / 2019.11.15 0520 UTC
Wind: from the NNE (030 degrees) at 9 MPH (8 KT):0
Visibility: greater than 7 mile(s):0
Sky conditions: mostly cloudy
Temperature: 37 F (3 C)
Dew Point: 35 F (2 C)
Relative Humidity: 93%
Pressure (altimeter): 29.47 in. Hg (0998 hPa)
ob: EBBR 150520Z 03008KT 9999 SCT006 BKN007 03/02 Q0998 TEMPO BKN004
cycle: 5

Station Type Date Time Source
EBBR TAF 2019/11/15 06:28 UTC NOAA

TAF EBBR 150510Z 1506/1612 04011KT 8000 BKN006
BECMG 1510/1512 SCT008 BKN012 PROB30
TEMPO 1510/1512 4000 -RA -RADZ
BECMG 1512/1514 SCT025
BECMG 1514/1516 12004KT

Example: see airport list